createdAt,value
2022-12-14T00:00:45.960Z,105.72
2022-12-14T00:03:26.638Z,101.82
2022-12-14T00:05:59.224Z,99.93
2022-12-14T00:08:36.839Z,109.28
2022-12-14T00:11:17.377Z,123.63
2022-12-14T00:13:55.084Z,90.72
2022-12-14T00:16:28.654Z,111.60
2022-12-14T00:19:02.461Z,79.47
2022-12-14T00:21:34.978Z,109.13
2022-12-14T00:24:07.938Z,95.75
2022-12-14T00:26:40.570Z,87.68
2022-12-14T00:29:13.800Z,82.10
2022-12-14T00:31:48.971Z,98.07
2022-12-14T00:34:22.070Z,89.28
2022-12-14T00:36:55.905Z,89.85
2022-12-14T00:39:28.878Z,72.70
2022-12-14T00:42:01.856Z,77.60
2022-12-14T00:44:34.815Z,86.88
2022-12-14T00:47:07.389Z,84.47
2022-12-14T00:49:40.901Z,91.57
2022-12-14T00:52:13.425Z,88.13
2022-12-14T00:54:46.582Z,79.03
2022-12-14T00:57:19.135Z,95.10
2022-12-14T00:59:52.221Z,96.80
2022-12-14T01:02:24.909Z,107.82
2022-12-14T01:04:58.144Z,81.45
2022-12-14T01:07:30.700Z,88.32
2022-12-14T01:10:04.267Z,83.13
2022-12-14T01:12:36.812Z,92.63
2022-12-14T01:15:10.174Z,57.58
2022-12-14T01:17:43.115Z,67.53
2022-12-14T01:20:16.465Z,64.38
2022-12-14T01:22:53.857Z,69.72
2022-12-14T01:25:26.842Z,60.78
2022-12-14T01:27:59.459Z,49.78
2022-12-14T01:30:32.441Z,49.17
2022-12-14T01:33:04.971Z,58.60
2022-12-14T01:35:37.992Z,53.83
2022-12-14T01:38:10.622Z,64.82
2022-12-14T01:40:43.580Z,78.07
2022-12-14T01:43:16.113Z,67.05
2022-12-14T01:45:49.048Z,51.85
2022-12-14T01:48:22.612Z,69.90
2022-12-14T01:50:56.027Z,72.03
2022-12-14T01:53:28.836Z,58.60
2022-12-14T01:56:02.164Z,78.20
2022-12-14T01:58:35.094Z,71.88
2022-12-14T02:01:11.624Z,76.68
2022-12-14T02:03:47.029Z,76.38
2022-12-14T02:06:23.277Z,61.83
2022-12-14T02:08:56.059Z,101.88
2022-12-14T02:11:46.968Z,67.60
2022-12-14T02:14:19.544Z,73.03
2022-12-14T02:16:54.040Z,72.63
2022-12-14T02:19:26.912Z,87.13
2022-12-14T02:22:18.135Z,79.28
2022-12-14T02:24:53.654Z,86.13
2022-12-14T02:27:45.525Z,87.75
2022-12-14T02:30:26.324Z,85.35
2022-12-14T02:33:17.746Z,79.72
2022-12-14T02:35:50.374Z,62.38
2022-12-14T02:38:39.019Z,76.55
2022-12-14T02:41:17.225Z,78.00
2022-12-14T02:43:59.316Z,81.80
2022-12-14T02:46:31.904Z,83.85
2022-12-14T02:49:10.894Z,78.28
2022-12-14T02:51:49.400Z,63.25
2022-12-14T02:54:42.768Z,74.38
2022-12-14T02:57:21.389Z,73.47
2022-12-14T02:59:59.736Z,78.20
2022-12-14T03:02:35.322Z,88.22
2022-12-14T03:05:08.529Z,91.25
2022-12-14T03:07:54.940Z,63.22
2022-12-14T03:10:27.953Z,72.00
2022-12-14T03:13:19.357Z,88.03
2022-12-14T03:15:56.016Z,58.92
2022-12-14T03:18:31.004Z,76.30
2022-12-14T03:21:06.144Z,72.75
2022-12-14T03:23:39.985Z,59.30
2022-12-14T03:26:16.100Z,103.97
2022-12-14T03:28:54.071Z,77.57
2022-12-14T03:31:32.630Z,73.18
2022-12-14T03:34:07.291Z,78.40
2022-12-14T03:37:08.686Z,73.25
2022-12-14T03:39:42.611Z,87.75
2022-12-14T03:42:15.416Z,79.22
2022-12-14T03:44:49.635Z,92.03
2022-12-14T03:47:25.978Z,70.88
2022-12-14T03:50:12.118Z,76.97
2022-12-14T03:52:47.949Z,77.60
2022-12-14T03:55:37.135Z,76.85
2022-12-14T03:58:18.896Z,77.38
2022-12-14T04:03:27.504Z,68.80
2022-12-14T04:06:06.169Z,63.63
2022-12-14T04:08:45.352Z,77.45
2022-12-14T04:11:37.368Z,64.72
2022-12-14T04:14:41.008Z,66.50
2022-12-14T04:17:34.019Z,61.20
2022-12-14T04:20:09.910Z,64.65
2022-12-14T04:22:45.089Z,68.40
2022-12-14T04:25:39.673Z,97.30
2022-12-14T04:28:32.045Z,72.82
2022-12-14T04:31:07.523Z,85.32
2022-12-14T04:33:47.837Z,70.38
2022-12-14T04:36:23.812Z,63.78
2022-12-14T04:39:01.599Z,91.75
2022-12-14T04:41:36.855Z,83.80
2022-12-14T04:44:12.805Z,82.85
2022-12-14T04:46:46.927Z,75.25
2022-12-14T04:49:21.163Z,73.22
2022-12-14T04:51:54.060Z,56.78
2022-12-14T04:54:39.903Z,58.35
2022-12-14T04:57:27.795Z,50.65
2022-12-14T05:00:01.191Z,51.38
2022-12-14T05:02:43.230Z,54.05
2022-12-14T05:05:18.924Z,44.13
2022-12-14T05:08:05.559Z,40.97
2022-12-14T05:10:38.172Z,51.45
2022-12-14T05:13:19.164Z,42.22
2022-12-14T05:15:53.158Z,46.47
2022-12-14T05:18:26.289Z,48.85
2022-12-14T05:20:58.884Z,39.58
2022-12-14T05:23:32.250Z,46.78
2022-12-14T05:26:04.958Z,37.17
2022-12-14T05:28:38.013Z,47.45
2022-12-14T05:31:10.585Z,42.15
2022-12-14T05:33:43.536Z,38.22
2022-12-14T05:36:16.157Z,40.63
2022-12-14T05:38:49.024Z,67.53
2022-12-14T05:41:21.546Z,44.88
2022-12-14T05:43:54.442Z,41.33
2022-12-14T05:46:27.020Z,30.40
2022-12-14T05:49:00.028Z,39.58
2022-12-14T05:51:32.498Z,49.60
2022-12-14T05:54:05.786Z,40.80
2022-12-14T05:56:38.673Z,34.28
2022-12-14T05:59:15.851Z,44.38
2022-12-14T06:01:50.654Z,48.45
2022-12-14T06:04:23.819Z,58.20
2022-12-14T06:06:56.404Z,63.58
2022-12-14T06:09:29.323Z,82.28
2022-12-14T06:12:01.814Z,65.85
2022-12-14T06:14:34.772Z,83.50
2022-12-14T06:17:08.020Z,83.20
2022-12-14T06:19:40.947Z,72.05
2022-12-14T06:22:13.514Z,67.07
2022-12-14T06:24:46.516Z,75.68
2022-12-14T06:27:18.943Z,83.60
2022-12-14T06:29:51.856Z,67.20
2022-12-14T06:32:25.236Z,100.13
2022-12-14T06:34:58.107Z,73.20
2022-12-14T06:37:31.537Z,58.20
2022-12-14T06:40:04.737Z,67.40
2022-12-14T06:42:37.222Z,85.70
2022-12-14T06:45:10.376Z,75.68
2022-12-14T06:47:42.881Z,89.78
2022-12-14T06:50:15.994Z,70.97
2022-12-14T06:52:52.073Z,89.05
2022-12-14T06:55:25.537Z,80.53
2022-12-14T06:57:58.105Z,80.72
2022-12-14T07:00:31.174Z,98.05
2022-12-14T07:03:04.314Z,74.68
2022-12-14T07:05:37.514Z,74.05
2022-12-14T07:08:10.084Z,69.97
2022-12-14T07:10:42.962Z,84.90
2022-12-14T07:13:15.532Z,76.60
2022-12-14T07:15:55.840Z,64.38
2022-12-14T07:18:28.910Z,66.65
2022-12-14T07:21:05.481Z,60.33
2022-12-14T07:23:38.813Z,77.80
2022-12-14T07:26:13.184Z,70.32
2022-12-14T07:28:46.064Z,43.75
2022-12-14T07:31:23.515Z,50.85
2022-12-14T07:33:57.431Z,50.63
2022-12-14T07:36:30.980Z,58.33
2022-12-14T07:39:03.751Z,70.72
2022-12-14T07:41:36.679Z,39.45
2022-12-14T07:44:09.355Z,53.55
2022-12-14T07:46:42.672Z,54.92
2022-12-14T07:49:15.341Z,52.28
2022-12-14T07:51:48.617Z,70.28
2022-12-14T07:54:22.355Z,51.50
2022-12-14T07:56:55.547Z,61.55
2022-12-14T07:59:28.249Z,54.88
2022-12-14T08:02:01.266Z,44.28
2022-12-14T08:04:34.609Z,50.30
2022-12-14T08:07:07.544Z,53.13
2022-12-14T08:09:40.177Z,34.90
2022-12-14T08:12:13.056Z,49.17
2022-12-14T08:14:45.640Z,45.67
2022-12-14T08:17:21.952Z,57.05
2022-12-14T08:19:54.567Z,56.10
2022-12-14T08:22:27.529Z,38.38
2022-12-14T08:25:00.376Z,46.80
2022-12-14T08:27:33.381Z,37.22
2022-12-14T08:30:06.343Z,54.58
2022-12-14T08:32:39.176Z,47.15
2022-12-14T08:35:11.768Z,43.92
2022-12-14T08:37:47.639Z,49.67
2022-12-14T08:40:20.733Z,51.30
2022-12-14T08:42:53.867Z,46.22
2022-12-14T08:45:26.346Z,48.80
2022-12-14T08:47:59.927Z,56.58
2022-12-14T08:50:32.641Z,42.92
2022-12-14T08:53:05.431Z,57.85
2022-12-14T08:55:38.714Z,49.22
2022-12-14T08:58:12.221Z,37.70
2022-12-14T09:00:45.231Z,45.15
2022-12-14T09:03:18.392Z,53.50
2022-12-14T09:05:51.075Z,43.92
2022-12-14T09:08:23.972Z,52.17
2022-12-14T09:10:56.516Z,47.38
2022-12-14T09:13:29.815Z,57.97
2022-12-14T09:16:04.234Z,68.10
2022-12-14T09:18:38.247Z,60.35
2022-12-14T09:21:10.970Z,57.47
2022-12-14T09:23:44.449Z,61.03
2022-12-14T09:26:18.646Z,48.33
2022-12-14T09:28:53.712Z,46.67
2022-12-14T09:31:27.539Z,48.65
2022-12-14T09:34:00.601Z,51.03
2022-12-14T09:36:34.003Z,58.25
2022-12-14T09:39:07.622Z,67.28
2022-12-14T09:42:03.171Z,54.45
2022-12-14T09:44:46.024Z,45.00
2022-12-14T09:47:25.427Z,39.85
2022-12-14T09:49:58.519Z,55.47
2022-12-14T09:52:40.542Z,40.05
2022-12-14T09:55:19.187Z,48.13
2022-12-14T09:57:53.824Z,51.95
2022-12-14T10:00:31.240Z,52.00
2022-12-14T10:03:10.438Z,43.45
2022-12-14T10:06:02.045Z,53.30
2022-12-14T10:08:47.022Z,39.63
2022-12-14T10:11:38.000Z,37.97
2022-12-14T10:14:16.704Z,46.80
2022-12-14T10:17:17.125Z,41.72
2022-12-14T10:19:57.025Z,35.17
2022-12-14T10:22:31.861Z,39.03
2022-12-14T10:25:07.335Z,41.50
2022-12-14T10:28:09.350Z,60.45
2022-12-14T10:30:34.148Z,43.55
2022-12-14T10:33:27.226Z,35.97
2022-12-14T10:36:08.489Z,34.13
2022-12-14T10:38:46.456Z,48.67
2022-12-14T10:41:37.139Z,40.25
2022-12-14T10:44:20.389Z,49.65
2022-12-14T10:47:08.706Z,45.58
2022-12-14T10:49:45.150Z,63.20
2022-12-14T10:52:23.176Z,42.25
2022-12-14T10:54:57.580Z,40.05
2022-12-14T10:57:30.133Z,34.45
2022-12-14T11:00:09.720Z,47.40
2022-12-14T11:02:44.869Z,62.65
2022-12-14T11:05:40.757Z,39.80
2022-12-14T11:08:34.417Z,42.83
2022-12-14T11:11:10.712Z,49.55
2022-12-14T11:13:50.967Z,43.08
2022-12-14T11:16:30.215Z,47.88
2022-12-14T11:19:15.138Z,50.28
2022-12-14T11:21:50.047Z,28.15
2022-12-14T11:24:27.441Z,35.67
2022-12-14T11:27:01.890Z,39.35
2022-12-14T11:29:39.660Z,50.53
2022-12-14T11:32:18.156Z,49.00
2022-12-14T11:34:58.091Z,52.40
2022-12-14T11:37:31.952Z,40.70
2022-12-14T11:40:05.866Z,65.22
2022-12-14T11:42:38.822Z,43.92
2022-12-14T11:45:40.639Z,50.78
2022-12-14T11:48:13.662Z,40.40
2022-12-14T11:50:47.480Z,34.30
2022-12-14T11:53:21.996Z,37.17
2022-12-14T11:55:59.107Z,52.88
2022-12-14T11:58:33.741Z,48.15
2022-12-14T12:01:16.670Z,33.80
2022-12-14T12:03:51.726Z,48.45
2022-12-14T12:06:29.385Z,32.45
2022-12-14T12:09:03.758Z,62.13
2022-12-14T12:11:36.287Z,47.75
2022-12-14T12:14:26.108Z,41.80
2022-12-14T12:16:58.844Z,42.60
2022-12-14T12:19:34.245Z,37.78
2022-12-14T12:22:09.634Z,43.08
2022-12-14T12:28:00.549Z,51.63
2022-12-14T12:30:34.911Z,46.97
2022-12-14T12:33:22.487Z,49.17
2022-12-14T12:35:56.489Z,56.13
2022-12-14T12:38:44.142Z,43.60
2022-12-14T12:42:05.226Z,55.50
2022-12-14T12:44:41.112Z,50.40
2022-12-14T12:47:29.879Z,42.50
2022-12-14T12:50:10.154Z,31.60
2022-12-14T12:52:50.516Z,44.50
2022-12-14T12:55:24.142Z,40.95
2022-12-14T12:57:58.664Z,66.93
2022-12-14T13:00:31.734Z,36.83
2022-12-14T13:03:16.332Z,41.97
2022-12-14T13:05:49.910Z,49.88
2022-12-14T13:08:25.784Z,41.60
2022-12-14T13:11:25.241Z,47.78
2022-12-14T13:14:04.177Z,37.97
2022-12-14T13:16:39.036Z,39.15
2022-12-14T13:22:14.859Z,54.70
2022-12-14T13:24:51.819Z,50.33
2022-12-14T13:27:40.992Z,54.55
2022-12-14T13:30:43.521Z,46.08
2022-12-14T13:33:46.208Z,54.78
2022-12-14T13:36:35.428Z,57.90
2022-12-14T13:39:08.084Z,53.00
2022-12-14T13:41:40.988Z,43.80
2022-12-14T13:44:37.437Z,59.85
2022-12-14T13:47:17.832Z,52.70
2022-12-14T13:50:26.641Z,49.65
2022-12-14T13:52:49.184Z,47.30
2022-12-14T13:55:30.929Z,42.13
2022-12-14T13:58:19.196Z,44.15
2022-12-14T14:00:53.517Z,45.00
2022-12-14T14:03:35.814Z,43.53
2022-12-14T14:06:34.808Z,58.33
2022-12-14T14:09:27.067Z,48.40
2022-12-14T14:12:03.877Z,44.08
2022-12-14T14:14:40.370Z,36.80
2022-12-14T14:17:13.094Z,43.42
2022-12-14T14:19:49.746Z,45.83
2022-12-14T14:22:27.632Z,32.42
2022-12-14T14:25:01.941Z,48.30
2022-12-14T14:27:37.477Z,41.90
2022-12-14T14:30:29.290Z,60.38
2022-12-14T14:33:43.027Z,37.53
2022-12-14T14:36:07.930Z,49.58
2022-12-14T14:38:41.102Z,36.78
2022-12-14T14:41:20.920Z,44.67
2022-12-14T14:43:58.583Z,46.78
2022-12-14T14:46:43.068Z,40.55
2022-12-14T14:49:23.066Z,37.50
2022-12-14T14:51:56.105Z,34.03
2022-12-14T14:57:40.470Z,45.50
2022-12-14T15:00:13.356Z,44.38
2022-12-14T15:02:46.591Z,37.58
2022-12-14T15:08:20.875Z,33.65
2022-12-14T15:10:53.833Z,47.40
2022-12-14T15:13:30.267Z,43.22
2022-12-14T15:16:03.066Z,45.38
2022-12-14T15:18:35.947Z,41.70
2022-12-14T15:21:11.980Z,51.50
2022-12-14T15:23:49.463Z,43.08
2022-12-14T15:26:27.665Z,39.72
2022-12-14T15:29:01.250Z,43.65
2022-12-14T15:31:35.731Z,43.38
2022-12-14T15:34:14.092Z,43.20
2022-12-14T15:36:47.186Z,43.70
2022-12-14T15:39:41.047Z,58.33
2022-12-14T15:42:15.522Z,49.20
2022-12-14T15:44:52.691Z,47.58
2022-12-14T15:47:26.732Z,37.83
2022-12-14T15:50:21.510Z,51.35
2022-12-14T15:52:55.965Z,51.65
2022-12-14T15:55:28.886Z,49.70
2022-12-14T15:58:16.142Z,46.30
2022-12-14T16:00:50.509Z,38.15
2022-12-14T16:03:33.007Z,36.90
2022-12-14T16:06:06.375Z,31.75
2022-12-14T16:08:42.563Z,33.88
2022-12-14T16:11:24.923Z,43.00
2022-12-14T16:13:59.461Z,35.65
2022-12-14T16:16:32.483Z,69.22
2022-12-14T16:19:25.878Z,55.38
2022-12-14T16:22:18.334Z,32.38
2022-12-14T16:24:58.299Z,50.45
2022-12-14T16:27:31.564Z,61.47
2022-12-14T16:30:24.488Z,61.83
2022-12-14T16:33:14.148Z,34.60
2022-12-14T16:35:47.639Z,53.72
2022-12-14T16:38:20.524Z,58.85
2022-12-14T16:40:58.203Z,50.65
2022-12-14T16:43:31.538Z,44.83
2022-12-14T16:46:04.497Z,42.08
2022-12-14T16:48:39.012Z,51.80
2022-12-14T16:51:37.852Z,32.33
2022-12-14T16:54:24.990Z,35.63
2022-12-14T16:56:58.969Z,25.40
2022-12-14T16:59:35.996Z,33.22
2022-12-14T17:02:25.475Z,43.72
2022-12-14T17:05:31.305Z,44.10
2022-12-14T17:08:04.804Z,35.65
2022-12-14T17:10:39.164Z,27.45
2022-12-14T17:13:11.659Z,39.78
2022-12-14T17:16:10.906Z,22.92
2022-12-14T17:18:43.481Z,50.35
2022-12-14T17:21:23.984Z,38.78
2022-12-14T17:23:57.634Z,31.52
2022-12-14T17:26:31.606Z,41.10
2022-12-14T17:29:04.239Z,34.60
2022-12-14T17:31:37.175Z,43.38
2022-12-14T17:34:10.081Z,45.45
2022-12-14T17:36:43.230Z,38.33
2022-12-14T17:39:15.908Z,35.50
2022-12-14T17:41:48.911Z,31.45
2022-12-14T17:44:21.927Z,39.42
2022-12-14T17:46:55.735Z,43.35
2022-12-14T17:49:34.445Z,50.95
2022-12-14T17:52:08.223Z,37.63
2022-12-14T17:54:40.754Z,49.75
2022-12-14T17:57:17.828Z,69.40
2022-12-14T18:00:10.950Z,39.80
2022-12-14T18:02:46.285Z,21.75
2022-12-14T18:05:22.402Z,70.32
2022-12-14T18:07:55.526Z,47.45
2022-12-14T18:10:28.546Z,46.10
2022-12-14T18:13:02.700Z,30.77
2022-12-14T18:15:37.833Z,23.50
2022-12-14T18:18:11.357Z,48.50
2022-12-14T18:20:45.474Z,53.83
2022-12-14T18:23:22.641Z,25.48
2022-12-14T18:25:56.808Z,61.17
2022-12-14T18:28:29.731Z,45.13
2022-12-14T18:31:03.890Z,40.53
2022-12-14T18:33:36.820Z,57.05
2022-12-14T18:36:11.799Z,36.40
2022-12-14T18:38:44.889Z,43.70
2022-12-14T18:41:23.570Z,38.50
2022-12-14T18:43:56.855Z,39.67
2022-12-14T18:46:29.478Z,36.35
2022-12-14T18:49:02.530Z,33.25
2022-12-14T18:51:35.451Z,25.10
2022-12-14T18:54:09.720Z,39.95
2022-12-14T18:56:42.509Z,42.60
2022-12-14T18:59:15.576Z,39.25
2022-12-14T19:01:48.315Z,34.63
2022-12-14T19:04:22.674Z,28.73
2022-12-14T19:06:55.153Z,37.47
2022-12-14T19:09:28.096Z,23.05
2022-12-14T19:12:00.574Z,37.72
2022-12-14T19:14:33.564Z,27.13
2022-12-14T19:17:06.152Z,24.75
2022-12-14T19:19:44.229Z,11.15
2022-12-14T19:22:17.729Z,32.40
2022-12-14T19:24:52.672Z,30.45
2022-12-14T19:28:00.908Z,35.17
2022-12-14T19:30:23.223Z,28.65
2022-12-14T19:32:56.795Z,31.08
2022-12-14T19:35:29.886Z,27.35
2022-12-14T19:38:02.451Z,30.35
2022-12-14T19:40:35.418Z,27.70
2022-12-14T19:43:08.024Z,31.02
2022-12-14T19:45:41.013Z,37.92
2022-12-14T19:48:13.719Z,32.38
2022-12-14T19:50:49.198Z,42.08
2022-12-14T19:53:24.006Z,36.25
2022-12-14T19:55:57.060Z,45.58
2022-12-14T19:58:30.073Z,30.30
2022-12-14T20:01:07.736Z,21.25
2022-12-14T20:03:40.779Z,34.88
2022-12-14T20:06:13.950Z,42.15
2022-12-14T20:08:49.345Z,41.53
2022-12-14T20:11:22.710Z,39.72
2022-12-14T20:13:58.995Z,34.85
2022-12-14T20:16:35.581Z,34.67
2022-12-14T20:19:08.534Z,40.55
2022-12-14T20:21:41.579Z,40.22
2022-12-14T20:24:14.311Z,35.33
2022-12-14T20:26:47.203Z,30.40
2022-12-14T20:29:21.965Z,44.95
2022-12-14T20:31:57.577Z,36.03
2022-12-14T20:34:31.037Z,43.28
2022-12-14T20:37:04.407Z,33.00
2022-12-14T20:39:36.942Z,41.05
2022-12-14T20:42:09.853Z,45.85
2022-12-14T20:44:42.489Z,43.20
2022-12-14T20:47:15.332Z,30.45
2022-12-14T20:49:48.059Z,40.10
2022-12-14T20:52:20.937Z,39.70
2022-12-14T20:54:53.961Z,32.60
2022-12-14T20:57:27.004Z,34.13
2022-12-14T20:59:59.763Z,29.85
2022-12-14T21:02:32.774Z,27.15
2022-12-14T21:05:05.763Z,42.13
2022-12-14T21:07:39.564Z,39.63
2022-12-14T21:10:12.130Z,50.03
2022-12-14T21:12:47.788Z,31.38
2022-12-14T21:15:20.313Z,30.55
2022-12-14T21:17:53.166Z,31.98
2022-12-14T21:20:25.946Z,28.80
2022-12-14T21:22:58.926Z,40.92
2022-12-14T21:25:35.706Z,45.08
2022-12-14T21:28:08.589Z,40.92
2022-12-14T21:30:41.209Z,34.22
2022-12-14T21:33:14.201Z,28.00
2022-12-14T21:35:46.790Z,33.95
2022-12-14T21:38:19.711Z,57.13
2022-12-14T21:41:11.644Z,41.13
2022-12-14T21:43:45.027Z,34.75
2022-12-14T21:46:17.773Z,30.73
2022-12-14T21:48:50.710Z,32.92
2022-12-14T21:51:23.292Z,34.05
2022-12-14T21:53:59.035Z,36.63
2022-12-14T21:56:56.347Z,41.67
2022-12-14T21:59:30.620Z,41.20
2022-12-14T22:02:05.462Z,42.88
2022-12-14T22:04:40.128Z,30.67
2022-12-14T22:07:16.466Z,40.80
2022-12-14T22:09:50.129Z,35.35
2022-12-14T22:12:23.311Z,30.73
2022-12-14T22:14:56.265Z,41.75
2022-12-14T22:17:28.750Z,45.35
2022-12-14T22:20:01.724Z,29.13
2022-12-14T22:22:34.319Z,31.45
2022-12-14T22:25:07.498Z,48.65
2022-12-14T22:27:40.035Z,33.08
2022-12-14T22:30:13.363Z,29.40
2022-12-14T22:32:45.918Z,45.75
2022-12-14T22:35:18.779Z,41.65
2022-12-14T22:37:51.393Z,26.23
2022-12-14T22:40:24.339Z,34.80
2022-12-14T22:42:56.824Z,33.08
2022-12-14T22:45:29.766Z,36.15
2022-12-14T22:48:02.407Z,29.10
2022-12-14T22:50:35.495Z,21.80
2022-12-14T22:53:08.050Z,36.05
2022-12-14T22:55:41.366Z,34.20
2022-12-14T22:58:15.000Z,47.00
2022-12-14T23:00:48.724Z,57.50
2022-12-14T23:03:25.476Z,49.67
2022-12-14T23:06:01.944Z,49.88
2022-12-14T23:08:34.978Z,59.78
2022-12-14T23:11:26.805Z,68.85
2022-12-14T23:14:18.269Z,85.85
2022-12-14T23:17:09.516Z,133.85
2022-12-14T23:20:04.660Z,168.18
2022-12-14T23:22:56.554Z,92.25
2022-12-14T23:25:47.668Z,85.73
2022-12-14T23:28:38.863Z,49.35
2022-12-14T23:31:30.041Z,52.67
2022-12-14T23:34:21.363Z,59.28
2022-12-14T23:37:17.964Z,45.73
2022-12-14T23:40:11.313Z,50.85
2022-12-14T23:43:02.487Z,34.43
2022-12-14T23:45:53.712Z,31.75
2022-12-14T23:48:44.810Z,52.23
2022-12-14T23:51:36.151Z,44.45
2022-12-14T23:54:26.984Z,33.80
2022-12-14T23:57:18.160Z,32.70
